Island Supplier — WCZ2444 — position and weather

sailwx.info

Track history (hours):
 
Tides and Currents Weather Stations Pressure Air Temp Water Temp Dewpoint Dewpoint Depression Visibility Wind Speed Wind Dir Waves Ship Positions

Island Supplier

Owner: Santa Catalina Island Resort Services, Inc., AVALON, CA. More information available from US FCC via Universal Licensing System and Coast Guard Vessel Documentation Center.

Last reported at 2016-Aug-25 15:27 UTC. Time now 2016-Aug-25 18:30 UTC.
Position N 33°26' W 118°35'.

Length 22 m; draft 1 m.

Type: Cargo ship. MMSI: 366765690.

Date/timePositionNaut miles runAvg speedWind from/ knotsBaromVisibWave heightAir tempDewpointWater temp
2016-Aug-25 15:27N 33°26' W 118°35'7 5.0
2016-Aug-25 14:08N 33°32' W 118°31'5 6.4
2016-Aug-25 13:23N 33°35' W 118°27'5 6.3
2016-Aug-25 12:33N 33°38' W 118°22'6 6.0
2016-Aug-25 11:33N 33°42' W 118°16'3 0.1
2016-Aug-24 00:33N 33°45' W 118°16'1 1.1
2016-Aug-23 23:33N 33°44' W 118°16'6 5.6
2016-Aug-23 22:33N 33°39' W 118°20'8 7.9
2016-Aug-23 21:33N 33°34' W 118°28'  
2016-Aug-19 23:32N 33°30' W 118°35'6 5.9
2016-Aug-19 22:33N 33°34' W 118°29'5 5.2
2016-Aug-19 21:33N 33°37' W 118°24'4 4.4
2016-Aug-19 20:33N 33°40' W 118°20'5 4.9
2016-Aug-19 19:33N 33°43' W 118°16'2 0.4
2016-Aug-19 14:33N 33°45' W 118°16'4 4.2
2016-Aug-19 13:34N 33°41' W 118°16'7 6.4
2016-Aug-19 12:31N 33°36' W 118°21'6 6.7
2016-Aug-19 11:33N 33°30' W 118°26'4 0.3
2016-Aug-18 21:14N 33°27' W 118°30'6 0.9
2016-Aug-18 15:04N 33°29' W 118°36'4 6.6
2016-Aug-18 14:30N 33°31' W 118°33'6 6.7
2016-Aug-18 13:33N 33°34' W 118°26'7 6.6
2016-Aug-18 12:34N 33°39' W 118°21'6 5.9
2016-Aug-18 11:33N 33°43' W 118°15'2 0.1
2016-Aug-17 00:33N 33°45' W 118°16'3 3.0
2016-Aug-16 23:33N 33°42' W 118°16'8 7.6
2016-Aug-16 22:33N 33°38' W 118°23'8 7.6
2016-Aug-16 21:33N 33°33' W 118°30'  
Track history (hours):
 
Tides and Currents Weather Stations Pressure Air Temp Water Temp Dewpoint Dewpoint Depression Visibility Wind Speed Wind Dir Waves Ship Positions

Island Supplier

Owner: Santa Catalina Island Resort Services, Inc., AVALON, CA. More information available from US FCC via Universal Licensing System and Coast Guard Vessel Documentation Center.

Last reported at 2016-Aug-25 15:27 UTC. Time now 2016-Aug-25 18:30 UTC.
Position N 33°26' W 118°35'.

Length 22 m; draft 1 m.

Type: Cargo ship. MMSI: 366765690.

Date/timePositionNaut miles runAvg speedWind from/ knotsBaromVisibWave heightAir tempDewpointWater temp
2016-Aug-25 15:27N 33°26' W 118°35'7 5.0
2016-Aug-25 14:08N 33°32' W 118°31'5 6.4
2016-Aug-25 13:23N 33°35' W 118°27'5 6.3
2016-Aug-25 12:33N 33°38' W 118°22'6 6.0
2016-Aug-25 11:33N 33°42' W 118°16'3 0.1
2016-Aug-24 00:33N 33°45' W 118°16'1 1.1
2016-Aug-23 23:33N 33°44' W 118°16'6 5.6
2016-Aug-23 22:33N 33°39' W 118°20'8 7.9
2016-Aug-23 21:33N 33°34' W 118°28'  
2016-Aug-19 23:32N 33°30' W 118°35'6 5.9
2016-Aug-19 22:33N 33°34' W 118°29'5 5.2
2016-Aug-19 21:33N 33°37' W 118°24'4 4.4
2016-Aug-19 20:33N 33°40' W 118°20'5 4.9
2016-Aug-19 19:33N 33°43' W 118°16'2 0.4
2016-Aug-19 14:33N 33°45' W 118°16'4 4.2
2016-Aug-19 13:34N 33°41' W 118°16'7 6.4
2016-Aug-19 12:31N 33°36' W 118°21'6 6.7
2016-Aug-19 11:33N 33°30' W 118°26'4 0.3
2016-Aug-18 21:14N 33°27' W 118°30'6 0.9
2016-Aug-18 15:04N 33°29' W 118°36'4 6.6
2016-Aug-18 14:30N 33°31' W 118°33'6 6.7
2016-Aug-18 13:33N 33°34' W 118°26'7 6.6
2016-Aug-18 12:34N 33°39' W 118°21'6 5.9
2016-Aug-18 11:33N 33°43' W 118°15'2 0.1
2016-Aug-17 00:33N 33°45' W 118°16'3 3.0
2016-Aug-16 23:33N 33°42' W 118°16'8 7.6
2016-Aug-16 22:33N 33°38' W 118°23'8 7.6
2016-Aug-16 21:33N 33°33' W 118°30'  

Dump ship's entire track history